Franklin, Indiana
Current Conditions -  °F | °C
As of 12:53 AM on Thursday 27 Nov 2014 (Local Time) from KGEZ Reporting Station
Overcast Overcast  
Wind Chill: 22°   Ceiling: 9500
Heat Index: 30°   Visibility: 10mi
Dew Point: 22°   Wind: 9mph
Humidity: 72%   Direction: 360°N
Pressure: 30.1"   Gusts: NA
Location:  39.48°N, 86.06°W
Report Text: KGEZ 270553Z AUTO 36008KT 10SM OVC095 M01/M06 A3010 RMK AO2 SLP199 T10111056 11006 21011 53007
Loading
Personal Weather Stations






























Interactive Weather Map New forecast layout! Learn more

10-Day Weather Forecast

Advertisements
Track Severe Weather on mobile